Terminal Aerodrome Forecast
Issued by NWS

Home | Current Version | Previous Version | Text Only | Print | Product List | Glossary On
Versions: 1 2 3 4 5 6 7 8 9 10 11 12 13 14
000
FTUS43 KICT 041122
TAFCNU
TAF
KCNU 041122Z 0412/0512 17005KT P6SM SCT070 BKN200
     FM041800 18009KT P6SM SCT030 BKN070
     FM050000 14007KT P6SM VCTS SCT025 OVC040CB=

USA.gov is the U.S. government's official web portal to all federal, state and local government web resources and services.